sensor_id;sensor_type;location;lat;lon;timestamp;pressure;altitude;pressure_sealevel;temperature;humidity
57894;BME280;43710;47.460;19.034;2022-09-09T03:55:39;100308.37;;;19.33;85.22
57894;BME280;43710;47.460;19.034;2022-09-09T03:58:45;100308.37;;;19.33;85.22
57894;BME280;43710;47.460;19.034;2022-09-09T04:01:47;100300.44;;;18.91;87.11
57894;BME280;43710;47.460;19.034;2022-09-09T04:04:50;100293.75;;;19.00;86.74
57894;BME280;43710;47.460;19.034;2022-09-09T04:07:53;100290.94;;;18.97;86.35
57894;BME280;43710;47.460;19.034;2022-09-09T04:11:00;100295.59;;;18.84;87.10
57894;BME280;43710;47.460;19.034;2022-09-09T04:14:04;100299.97;;;18.76;86.84
57894;BME280;43710;47.460;19.034;2022-09-09T04:17:08;100302.69;;;18.76;87.92
57894;BME280;43710;47.460;19.034;2022-09-09T04:20:11;100298.97;;;18.81;87.86
57894;BME280;43710;47.460;19.034;2022-09-09T04:23:15;100304.75;;;18.92;86.97
57894;BME280;43710;47.460;19.034;2022-09-09T04:26:18;100312.78;;;19.00;85.99
57894;BME280;43710;47.460;19.034;2022-09-09T04:29:20;100307.12;;;18.93;86.45
57894;BME280;43710;47.460;19.034;2022-09-09T04:32:23;100298.09;;;19.01;86.04
57894;BME280;43710;47.460;19.034;2022-09-09T04:35:25;100295.00;;;19.03;86.03
57894;BME280;43710;47.460;19.034;2022-09-09T04:38:30;100294.09;;;18.99;86.05
57894;BME280;43710;47.460;19.034;2022-09-09T04:41:32;100301.00;;;18.84;86.94
57894;BME280;43710;47.460;19.034;2022-09-09T04:44:34;100304.75;;;18.92;86.38
57894;BME280;43710;47.460;19.034;2022-09-09T04:47:37;100291.16;;;18.92;86.33
57894;BME280;43710;47.460;19.034;2022-09-09T04:50:39;100294.47;;;18.97;86.11
57894;BME280;43710;47.460;19.034;2022-09-09T04:53:43;100288.69;;;18.99;85.47
57894;BME280;43710;47.460;19.034;2022-09-09T04:56:50;100295.56;;;18.96;85.91
57894;BME280;43710;47.460;19.034;2022-09-09T04:59:53;100296.59;;;18.92;85.85
57894;BME280;43710;47.460;19.034;2022-09-09T05:02:55;100289.59;;;18.91;84.94
57894;BME280;43710;47.460;19.034;2022-09-09T05:06:07;100297.38;;;18.80;85.92
57894;BME280;43710;47.460;19.034;2022-09-09T05:09:10;100306.56;;;18.88;85.44
57894;BME280;43710;47.460;19.034;2022-09-09T05:12:13;100309.03;;;18.93;84.81
57894;BME280;43710;47.460;19.034;2022-09-09T05:15:15;100305.19;;;18.94;84.58
57894;BME280;43710;47.460;19.034;2022-09-09T05:18:17;100305.44;;;19.01;84.91
57894;BME280;43710;47.460;19.034;2022-09-09T05:21:21;100308.84;;;18.98;85.55
57894;BME280;43710;47.460;19.034;2022-09-09T05:24:25;100311.09;;;19.08;85.81
57894;BME280;43710;47.460;19.034;2022-09-09T05:27:27;100308.25;;;19.17;86.12
57894;BME280;43710;47.460;19.034;2022-09-09T05:30:30;100312.47;;;19.14;86.59
57894;BME280;43710;47.460;19.034;2022-09-09T05:33:34;100312.69;;;19.21;85.73
57894;BME280;43710;47.460;19.034;2022-09-09T05:36:37;100306.78;;;19.32;84.53
57894;BME280;43710;47.460;19.034;2022-09-09T05:39:40;100316.75;;;19.40;84.15
57894;BME280;43710;47.460;19.034;2022-09-09T05:42:43;100313.34;;;19.43;83.77
57894;BME280;43710;47.460;19.034;2022-09-09T05:45:47;100317.31;;;19.45;85.11
57894;BME280;43710;47.460;19.034;2022-09-09T05:48:50;100323.31;;;19.51;85.28
57894;BME280;43710;47.460;19.034;2022-09-09T05:51:53;100323.06;;;19.56;85.41
57894;BME280;43710;47.460;19.034;2022-09-09T05:54:57;100321.72;;;19.62;85.44
57894;BME280;43710;47.460;19.034;2022-09-09T05:58:01;100323.66;;;19.62;85.68
57894;BME280;43710;47.460;19.034;2022-09-09T06:01:08;100326.97;;;19.67;85.05
57894;BME280;43710;47.460;19.034;2022-09-09T06:04:15;100322.31;;;19.68;84.22
57894;BME280;43710;47.460;19.034;2022-09-09T06:07:18;100323.75;;;19.78;83.77
57894;BME280;43710;47.460;19.034;2022-09-09T06:10:20;100323.97;;;19.85;84.34
57894;BME280;43710;47.460;19.034;2022-09-09T06:13:23;100320.78;;;19.95;83.01
57894;BME280;43710;47.460;19.034;2022-09-09T06:16:28;100320.75;;;20.07;82.09
57894;BME280;43710;47.460;19.034;2022-09-09T06:19:31;100322.09;;;20.13;80.95
57894;BME280;43710;47.460;19.034;2022-09-09T06:22:34;100318.81;;;20.08;81.44
57894;BME280;43710;47.460;19.034;2022-09-09T06:25:36;100329.44;;;20.13;78.72
57894;BME280;43710;47.460;19.034;2022-09-09T06:28:39;100325.91;;;20.12;81.05
57894;BME280;43710;47.460;19.034;2022-09-09T06:31:41;100333.16;;;20.21;78.85
57894;BME280;43710;47.460;19.034;2022-09-09T06:34:44;100331.78;;;20.27;78.50
57894;BME280;43710;47.460;19.034;2022-09-09T06:37:47;100333.47;;;20.31;77.89
57894;BME280;43710;47.460;19.034;2022-09-09T06:40:57;100323.38;;;20.60;72.70
57894;BME280;43710;47.460;19.034;2022-09-09T06:44:00;100327.91;;;20.56;75.10
57894;BME280;43710;47.460;19.034;2022-09-09T06:47:05;100319.41;;;20.57;78.73
57894;BME280;43710;47.460;19.034;2022-09-09T06:50:08;100320.81;;;20.51;75.04
57894;BME280;43710;47.460;19.034;2022-09-09T06:53:16;100320.81;;;20.51;76.86
57894;BME280;43710;47.460;19.034;2022-09-09T06:56:31;100323.53;;;20.51;73.88
57894;BME280;43710;47.460;19.034;2022-09-09T06:59:35;100325.28;;;20.59;73.12
57894;BME280;43710;47.460;19.034;2022-09-09T07:02:37;100336.72;;;20.65;72.36
57894;BME280;43710;47.460;19.034;2022-09-09T07:05:41;100334.19;;;20.72;74.73
57894;BME280;43710;47.460;19.034;2022-09-09T07:08:47;100344.56;;;20.67;76.57
57894;BME280;43710;47.460;19.034;2022-09-09T07:11:58;100342.72;;;20.71;76.34
57894;BME280;43710;47.460;19.034;2022-09-09T07:15:02;100336.31;;;20.63;79.02
57894;BME280;43710;47.460;19.034;2022-09-09T07:18:04;100345.34;;;20.67;78.58
57894;BME280;43710;47.460;19.034;2022-09-09T07:21:12;100354.12;;;20.60;80.56
57894;BME280;43710;47.460;19.034;2022-09-09T07:24:15;100348.78;;;20.64;80.19
57894;BME280;43710;47.460;19.034;2022-09-09T07:27:17;100347.09;;;20.75;77.56
57894;BME280;43710;47.460;19.034;2022-09-09T07:30:21;100344.12;;;20.80;76.92
57894;BME280;43710;47.460;19.034;2022-09-09T07:33:30;100344.12;;;20.80;76.91
57894;BME280;43710;47.460;19.034;2022-09-09T07:36:35;100347.38;;;20.86;78.50
57894;BME280;43710;47.460;19.034;2022-09-09T07:39:38;100359.50;;;20.88;75.94
57894;BME280;43710;47.460;19.034;2022-09-09T07:42:41;100355.22;;;20.87;75.99
57894;BME280;43710;47.460;19.034;2022-09-09T07:45:43;100353.56;;;20.83;72.75
57894;BME280;43710;47.460;19.034;2022-09-09T07:48:47;100357.41;;;20.98;70.93
57894;BME280;43710;47.460;19.034;2022-09-09T07:51:54;100353.22;;;21.00;71.24
57894;BME280;43710;47.460;19.034;2022-09-09T07:54:57;100361.47;;;21.04;73.02
57894;BME280;43710;47.460;19.034;2022-09-09T07:57:59;100362.78;;;21.10;70.95
57894;BME280;43710;47.460;19.034;2022-09-09T08:01:09;100360.41;;;21.24;70.02
57894;BME280;43710;47.460;19.034;2022-09-09T08:04:18;100356.63;;;21.29;71.54
57894;BME280;43710;47.460;19.034;2022-09-09T08:07:20;100341.59;;;21.35;64.36
57894;BME280;43710;47.460;19.034;2022-09-09T08:10:24;100352.03;;;21.49;63.13
57894;BME280;43710;47.460;19.034;2022-09-09T08:13:27;100344.12;;;21.60;64.14
57894;BME280;43710;47.460;19.034;2022-09-09T08:16:31;100354.25;;;21.59;62.50
57894;BME280;43710;47.460;19.034;2022-09-09T08:19:34;100345.84;;;21.68;62.34
57894;BME280;43710;47.460;19.034;2022-09-09T08:22:39;100343.28;;;21.75;62.04
57894;BME280;43710;47.460;19.034;2022-09-09T08:25:42;100353.94;;;21.80;61.24
57894;BME280;43710;47.460;19.034;2022-09-09T08:28:44;100346.34;;;21.89;60.00
57894;BME280;43710;47.460;19.034;2022-09-09T08:31:52;100351.81;;;21.89;63.04
57894;BME280;43710;47.460;19.034;2022-09-09T08:34:56;100342.59;;;21.97;60.23
57894;BME280;43710;47.460;19.034;2022-09-09T08:38:02;100349.16;;;22.12;59.01
57894;BME280;43710;47.460;19.034;2022-09-09T08:45:19;100348.25;;;22.24;60.82
57894;BME280;43710;47.460;19.034;2022-09-09T08:51:48;100343.88;;;22.39;57.84
57894;BME280;43710;47.460;19.034;2022-09-09T08:54:52;100345.00;;;22.38;59.42
57894;BME280;43710;47.460;19.034;2022-09-09T08:57:58;100345.00;;;22.38;56.90
57894;BME280;43710;47.460;19.034;2022-09-09T09:05:14;100344.69;;;22.62;57.76
57894;BME280;43710;47.460;19.034;2022-09-09T09:08:45;100344.75;;;22.66;59.19
57894;BME280;43710;47.460;19.034;2022-09-09T09:11:57;100343.97;;;22.65;60.78
57894;BME280;43710;47.460;19.034;2022-09-09T09:15:14;100340.88;;;22.67;52.08
57894;BME280;43710;47.460;19.034;2022-09-09T09:18:19;100342.37;;;22.64;59.05
57894;BME280;43710;47.460;19.034;2022-09-09T09:21:34;100338.91;;;22.67;58.20
57894;BME280;43710;47.460;19.034;2022-09-09T09:24:54;100338.56;;;22.69;59.10
57894;BME280;43710;47.460;19.034;2022-09-09T09:27:59;100328.94;;;22.75;60.99
57894;BME280;43710;47.460;19.034;2022-09-09T09:31:07;100331.41;;;22.84;60.15
57894;BME280;43710;47.460;19.034;2022-09-09T09:34:11;100324.47;;;22.90;58.44
57894;BME280;43710;47.460;19.034;2022-09-09T09:37:23;100318.66;;;22.91;63.96
57894;BME280;43710;47.460;19.034;2022-09-09T09:40:29;100316.72;;;22.92;59.83
57894;BME280;43710;47.460;19.034;2022-09-09T09:43:33;100318.44;;;23.00;56.72
57894;BME280;43710;47.460;19.034;2022-09-09T09:46:36;100318.09;;;23.02;56.71
57894;BME280;43710;47.460;19.034;2022-09-09T09:49:57;100318.87;;;23.02;54.84
57894;BME280;43710;47.460;19.034;2022-09-09T09:53:04;100326.00;;;23.10;52.11
57894;BME280;43710;47.460;19.034;2022-09-09T09:56:11;100317.12;;;23.17;49.95
57894;BME280;43710;47.460;19.034;2022-09-09T09:59:43;100325.37;;;23.20;49.47
57894;BME280;43710;47.460;19.034;2022-09-09T10:02:46;100326.41;;;23.35;51.52
57894;BME280;43710;47.460;19.034;2022-09-09T10:05:49;100321.16;;;23.50;48.55
57894;BME280;43710;47.460;19.034;2022-09-09T10:08:52;100309.84;;;23.51;51.64
57894;BME280;43710;47.460;19.034;2022-09-09T10:15:44;100304.38;;;23.51;49.47
57894;BME280;43710;47.460;19.034;2022-09-09T10:22:26;100300.25;;;23.64;48.17
57894;BME280;43710;47.460;19.034;2022-09-09T10:32:37;100306.38;;;23.81;44.64
57894;BME280;43710;47.460;19.034;2022-09-09T10:35:53;100310.00;;;23.92;44.32
57894;BME280;43710;47.460;19.034;2022-09-09T10:42:32;100303.25;;;24.16;44.49
57894;BME280;43710;47.460;19.034;2022-09-09T10:45:54;100304.75;;;24.10;43.38
57894;BME280;43710;47.460;19.034;2022-09-09T10:49:19;100304.75;;;24.10;42.18
57894;BME280;43710;47.460;19.034;2022-09-09T10:52:40;100300.91;;;24.14;42.60
57894;BME280;43710;47.460;19.034;2022-09-09T10:56:04;100298.19;;;24.18;43.33
57894;BME280;43710;47.460;19.034;2022-09-09T10:59:17;100298.09;;;24.07;43.92
57894;BME280;43710;47.460;19.034;2022-09-09T11:02:30;100299.09;;;24.29;40.75
57894;BME280;43710;47.460;19.034;2022-09-09T11:05:41;100297.31;;;24.41;39.19
57894;BME280;43710;47.460;19.034;2022-09-09T11:08:45;100292.91;;;24.36;39.98
57894;BME280;43710;47.460;19.034;2022-09-09T11:11:54;100285.41;;;24.29;42.05
57894;BME280;43710;47.460;19.034;2022-09-09T11:15:06;100286.62;;;24.35;41.24
57894;BME280;43710;47.460;19.034;2022-09-09T11:18:13;100284.72;;;24.39;43.82
57894;BME280;43710;47.460;19.034;2022-09-09T11:21:48;100286.38;;;24.44;41.43
57894;BME280;43710;47.460;19.034;2022-09-09T11:24:57;100284.91;;;24.54;41.82
57894;BME280;43710;47.460;19.034;2022-09-09T11:28:32;100284.91;;;24.54;41.82
57894;BME280;43710;47.460;19.034;2022-09-09T11:31:54;100286.91;;;24.57;46.85
57894;BME280;43710;47.460;19.034;2022-09-09T11:38:45;100285.16;;;24.42;45.21
57894;BME280;43710;47.460;19.034;2022-09-09T11:41:48;100283.47;;;24.33;45.53
57894;BME280;43710;47.460;19.034;2022-09-09T11:44:51;100284.66;;;24.32;43.17
57894;BME280;43710;47.460;19.034;2022-09-09T11:47:58;100281.56;;;24.34;41.06
57894;BME280;43710;47.460;19.034;2022-09-09T11:54:29;100282.88;;;24.47;43.83
57894;BME280;43710;47.460;19.034;2022-09-09T11:57:35;100278.59;;;24.50;41.33
57894;BME280;43710;47.460;19.034;2022-09-09T12:00:48;100267.50;;;24.39;43.34
57894;BME280;43710;47.460;19.034;2022-09-09T12:03:52;100268.03;;;24.52;45.03
57894;BME280;43710;47.460;19.034;2022-09-09T12:10:41;100270.34;;;24.46;44.39
57894;BME280;43710;47.460;19.034;2022-09-09T12:13:52;100270.22;;;24.39;43.79
57894;BME280;43710;47.460;19.034;2022-09-09T12:16:55;100278.84;;;24.37;45.05
57894;BME280;43710;47.460;19.034;2022-09-09T12:20:11;100286.59;;;24.32;46.19
57894;BME280;43710;47.460;19.034;2022-09-09T12:23:35;100280.91;;;24.44;46.06
57894;BME280;43710;47.460;19.034;2022-09-09T12:26:47;100284.06;;;24.50;46.76
57894;BME280;43710;47.460;19.034;2022-09-09T12:30:09;100274.00;;;24.61;47.35
57894;BME280;43710;47.460;19.034;2022-09-09T12:33:17;100272.84;;;24.62;46.91
57894;BME280;43710;47.460;19.034;2022-09-09T12:36:23;100265.38;;;24.63;46.34
57894;BME280;43710;47.460;19.034;2022-09-09T12:39:30;100259.09;;;24.58;46.74
57894;BME280;43710;47.460;19.034;2022-09-09T12:42:39;100252.84;;;24.58;46.78
57894;BME280;43710;47.460;19.034;2022-09-09T12:45:42;100255.22;;;24.63;46.66
57894;BME280;43710;47.460;19.034;2022-09-09T12:48:44;100257.53;;;24.57;47.94
57894;BME280;43710;47.460;19.034;2022-09-09T12:51:48;100250.87;;;24.58;46.81
57894;BME280;43710;47.460;19.034;2022-09-09T12:54:51;100238.50;;;24.79;46.70
57894;BME280;43710;47.460;19.034;2022-09-09T12:57:53;100239.59;;;24.64;47.29
57894;BME280;43710;47.460;19.034;2022-09-09T13:00:56;100241.13;;;24.61;47.65
57894;BME280;43710;47.460;19.034;2022-09-09T13:03:59;100237.47;;;24.50;47.22
57894;BME280;43710;47.460;19.034;2022-09-09T13:07:06;100232.03;;;24.53;46.12
57894;BME280;43710;47.460;19.034;2022-09-09T13:10:13;100217.50;;;24.49;46.12
57894;BME280;43710;47.460;19.034;2022-09-09T13:13:36;100215.09;;;24.41;45.86
57894;BME280;43710;47.460;19.034;2022-09-09T13:16:38;100212.38;;;24.41;46.22
57894;BME280;43710;47.460;19.034;2022-09-09T13:19:44;100210.06;;;24.50;45.98
57894;BME280;43710;47.460;19.034;2022-09-09T13:22:53;100212.06;;;24.53;46.31
57894;BME280;43710;47.460;19.034;2022-09-09T13:26:01;100203.91;;;24.60;46.61
57894;BME280;43710;47.460;19.034;2022-09-09T13:29:17;100209.53;;;24.78;43.61
57894;BME280;43710;47.460;19.034;2022-09-09T13:32:20;100203.25;;;24.77;46.11
57894;BME280;43710;47.460;19.034;2022-09-09T13:35:23;100201.25;;;24.71;42.50
57894;BME280;43710;47.460;19.034;2022-09-09T13:38:28;100202.03;;;24.71;43.08
57894;BME280;43710;47.460;19.034;2022-09-09T13:41:41;100198.88;;;24.69;42.22
57894;BME280;43710;47.460;19.034;2022-09-09T13:44:46;100198.06;;;24.65;42.13
57894;BME280;43710;47.460;19.034;2022-09-09T13:47:49;100192.16;;;24.59;41.69
57894;BME280;43710;47.460;19.034;2022-09-09T13:51:03;100183.94;;;24.63;41.66
57894;BME280;43710;47.460;19.034;2022-09-09T13:54:10;100182.47;;;24.76;40.17
57894;BME280;43710;47.460;19.034;2022-09-09T13:57:20;100177.03;;;24.80;42.93
57894;BME280;43710;47.460;19.034;2022-09-09T14:00:25;100182.56;;;24.83;47.80
57894;BME280;43710;47.460;19.034;2022-09-09T14:03:27;100178.69;;;24.92;42.60
57894;BME280;43710;47.460;19.034;2022-09-09T14:06:29;100166.56;;;24.96;42.37
57894;BME280;43710;47.460;19.034;2022-09-09T14:09:31;100160.69;;;24.98;43.16
57894;BME280;43710;47.460;19.034;2022-09-09T14:12:34;100160.72;;;25.01;42.32
57894;BME280;43710;47.460;19.034;2022-09-09T14:15:38;100159.47;;;24.92;44.88
57894;BME280;43710;47.460;19.034;2022-09-09T14:18:40;100148.47;;;24.84;41.98
57894;BME280;43710;47.460;19.034;2022-09-09T14:21:43;100152.72;;;24.75;43.70
57894;BME280;43710;47.460;19.034;2022-09-09T14:24:46;100155.41;;;24.68;44.75
57894;BME280;43710;47.460;19.034;2022-09-09T14:27:48;100154.72;;;24.78;41.89
57894;BME280;43710;47.460;19.034;2022-09-09T14:30:53;100162.16;;;24.81;41.58
57894;BME280;43710;47.460;19.034;2022-09-09T14:33:55;100158.22;;;24.78;43.45
57894;BME280;43710;47.460;19.034;2022-09-09T14:36:58;100153.88;;;24.70;44.09
57894;BME280;43710;47.460;19.034;2022-09-09T14:40:00;100151.91;;;24.71;45.94
57894;BME280;43710;47.460;19.034;2022-09-09T14:43:04;100154.69;;;24.74;43.09
57894;BME280;43710;47.460;19.034;2022-09-09T14:46:11;100148.41;;;24.74;42.53
57894;BME280;43710;47.460;19.034;2022-09-09T14:49:14;100149.94;;;24.68;43.27
57894;BME280;43710;47.460;19.034;2022-09-09T14:52:17;100146.81;;;24.73;43.05
57894;BME280;43710;47.460;19.034;2022-09-09T14:55:19;100147.59;;;24.70;42.99
